createdAt,value
2018-09-30T00:00:11.567Z,14.44
2018-09-30T00:01:11.581Z,14.72
2018-09-30T00:02:11.596Z,14.78
2018-09-30T00:03:11.616Z,14.65
2018-09-30T00:04:11.645Z,14.74
2018-09-30T00:05:11.662Z,14.61
2018-09-30T00:06:11.676Z,14.78
2018-09-30T00:07:11.697Z,14.81
2018-09-30T00:08:11.720Z,14.84
2018-09-30T00:09:11.739Z,15.01
2018-09-30T00:10:11.749Z,14.91
2018-09-30T00:11:11.775Z,14.98
2018-09-30T00:13:11.827Z,14.81
2018-09-30T00:14:11.840Z,14.83
2018-09-30T00:16:11.870Z,14.91
2018-09-30T00:17:11.889Z,14.81
2018-09-30T00:18:11.906Z,14.52
2018-09-30T00:19:12.932Z,14.71
2018-09-30T00:20:11.952Z,14.71
2018-09-30T00:21:11.979Z,14.74
2018-09-30T00:22:11.990Z,14.78
2018-09-30T00:23:12.009Z,14.78
2018-09-30T00:25:12.044Z,14.78
2018-09-30T00:26:12.062Z,14.81
2018-09-30T00:27:12.101Z,14.72
2018-09-30T00:29:12.119Z,14.75
2018-09-30T00:30:12.160Z,14.81
2018-09-30T00:32:12.181Z,14.52
2018-09-30T00:33:12.201Z,14.32
2018-09-30T00:34:12.213Z,14.44
2018-09-30T00:35:12.241Z,14.53
2018-09-30T00:36:12.288Z,14.32
2018-09-30T00:37:12.280Z,14.34
2018-09-30T00:38:12.290Z,14.46
2018-09-30T00:39:12.319Z,14.39
2018-09-30T00:40:12.348Z,14.37
2018-09-30T00:41:12.350Z,14.02
2018-09-30T00:42:12.377Z,13.84
2018-09-30T00:43:12.505Z,13.87
2018-09-30T00:44:12.407Z,13.84
2018-09-30T00:45:12.428Z,13.96
2018-09-30T00:46:12.460Z,14.09
2018-09-30T00:47:12.468Z,14.12
2018-09-30T00:48:12.485Z,13.67
2018-09-30T00:49:12.512Z,13.80
2018-09-30T00:50:12.518Z,13.76
2018-09-30T00:51:12.542Z,13.81
2018-09-30T00:52:12.563Z,14.09
2018-09-30T00:53:12.576Z,14.20
2018-09-30T00:54:12.593Z,14.32
2018-09-30T00:55:12.630Z,14.49
2018-09-30T00:56:12.645Z,14.46
2018-09-30T00:57:12.656Z,14.53
2018-09-30T00:58:12.678Z,14.60
2018-09-30T00:59:12.692Z,14.43
2018-09-30T01:00:12.726Z,14.57
2018-09-30T01:01:12.743Z,14.80
2018-09-30T01:02:12.752Z,14.49
2018-09-30T01:03:12.765Z,14.56
2018-09-30T01:04:12.798Z,14.61
2018-09-30T01:05:12.803Z,14.50
2018-09-30T01:06:12.827Z,14.49
2018-09-30T01:07:12.838Z,14.60
2018-09-30T01:08:12.857Z,14.74
2018-09-30T01:09:12.875Z,14.84
2018-09-30T01:10:12.899Z,14.90
2018-09-30T01:11:12.955Z,15.03
2018-09-30T01:12:12.933Z,14.88
2018-09-30T01:13:12.961Z,14.86
2018-09-30T01:14:12.971Z,14.78
2018-09-30T01:15:12.993Z,14.88
2018-09-30T01:16:13.014Z,14.56
2018-09-30T01:17:13.038Z,14.32
2018-09-30T01:18:13.051Z,14.53
2018-09-30T01:19:13.073Z,14.60
2018-09-30T01:20:13.086Z,14.84
2018-09-30T01:21:13.106Z,14.83
2018-09-30T01:22:13.146Z,14.80
2018-09-30T01:23:13.154Z,14.84
2018-09-30T01:24:13.168Z,14.81
2018-09-30T01:25:13.176Z,14.87
2018-09-30T01:26:13.213Z,14.78
2018-09-30T01:27:13.219Z,14.56
2018-09-30T01:28:13.266Z,14.62
2018-09-30T01:29:13.252Z,14.56
2018-09-30T01:30:13.279Z,14.78
2018-09-30T01:31:13.304Z,14.53
2018-09-30T01:32:13.312Z,14.52
2018-09-30T01:33:13.332Z,14.47
2018-09-30T01:34:13.349Z,14.60
2018-09-30T01:35:13.452Z,14.43
2018-09-30T01:36:13.387Z,14.25
2018-09-30T01:37:13.400Z,14.25
2018-09-30T01:38:13.428Z,14.39
2018-09-30T01:39:13.485Z,14.16
2018-09-30T01:40:13.467Z,13.98
2018-09-30T01:41:13.478Z,13.83
2018-09-30T01:42:13.497Z,13.63
2018-09-30T01:43:13.511Z,13.70
2018-09-30T01:44:13.537Z,13.67
2018-09-30T01:47:13.592Z,13.84
2018-09-30T01:48:13.615Z,13.67
2018-09-30T01:49:13.642Z,13.83
2018-09-30T01:50:13.714Z,14.02
2018-09-30T01:51:13.691Z,14.17
2018-09-30T01:52:13.724Z,14.21
2018-09-30T01:53:13.702Z,14.19
2018-09-30T01:54:13.728Z,14.25
2018-09-30T01:55:13.747Z,14.34
2018-09-30T01:56:13.764Z,14.20
2018-09-30T01:57:13.786Z,13.98
2018-09-30T01:58:13.801Z,14.07
2018-09-30T01:59:13.823Z,14.28
2018-09-30T02:00:13.845Z,14.20
2018-09-30T02:01:13.864Z,14.17
2018-09-30T02:02:13.876Z,14.12
2018-09-30T02:03:13.944Z,14.35
2018-09-30T02:04:13.913Z,14.16
2018-09-30T02:05:13.933Z,14.24
2018-09-30T02:06:13.950Z,14.31
2018-09-30T02:07:13.970Z,14.42
2018-09-30T02:08:14.049Z,14.52
2018-09-30T02:09:14.016Z,14.61
2018-09-30T02:10:14.025Z,14.60
2018-09-30T02:11:14.048Z,14.39
2018-09-30T02:12:14.075Z,14.21
2018-09-30T02:13:14.084Z,14.06
2018-09-30T02:14:14.224Z,14.17
2018-09-30T02:15:14.117Z,14.16
2018-09-30T02:16:14.142Z,14.37
2018-09-30T02:17:14.161Z,14.37
2018-09-30T02:18:14.177Z,14.27
2018-09-30T02:19:14.207Z,14.04
2018-09-30T02:20:14.215Z,13.94
2018-09-30T02:21:14.249Z,14.09
2018-09-30T02:22:14.254Z,14.16
2018-09-30T02:23:14.281Z,14.09
2018-09-30T02:24:14.288Z,14.19
2018-09-30T02:25:14.307Z,14.20
2018-09-30T02:26:14.331Z,14.02
2018-09-30T02:27:14.353Z,13.81
2018-09-30T02:28:14.375Z,13.69
2018-09-30T02:29:14.384Z,13.99
2018-09-30T02:30:14.400Z,14.04
2018-09-30T02:31:14.433Z,14.04
2018-09-30T02:32:14.438Z,14.19
2018-09-30T02:33:14.454Z,14.24
2018-09-30T02:34:14.502Z,14.27
2018-09-30T02:35:14.490Z,14.20
2018-09-30T02:36:14.513Z,14.14
2018-09-30T02:37:14.529Z,14.24
2018-09-30T02:38:14.550Z,14.09
2018-09-30T02:39:14.570Z,14.06
2018-09-30T02:40:14.594Z,14.06
2018-09-30T02:41:14.608Z,14.27
2018-09-30T02:42:14.649Z,14.28
2018-09-30T02:43:14.637Z,14.32
2018-09-30T02:44:14.659Z,14.35
2018-09-30T02:45:14.684Z,14.35
2018-09-30T02:46:14.699Z,14.43
2018-09-30T02:47:14.722Z,14.31
2018-09-30T02:48:14.735Z,14.24
2018-09-30T02:49:14.769Z,14.12
2018-09-30T02:51:14.792Z,14.38
2018-09-30T02:52:14.835Z,14.52
2018-09-30T02:53:14.824Z,14.44
2018-09-30T02:54:14.864Z,14.37
2018-09-30T02:55:14.886Z,14.16
2018-09-30T02:56:14.886Z,14.02
2018-09-30T02:57:14.898Z,13.91
2018-09-30T02:58:14.936Z,14.01
2018-09-30T02:59:15.001Z,14.20
2018-09-30T03:00:14.959Z,14.25
2018-09-30T03:01:14.989Z,13.91
2018-09-30T03:02:15.000Z,13.94
2018-09-30T03:03:15.015Z,13.67
2018-09-30T03:05:15.051Z,13.84
2018-09-30T03:06:15.079Z,13.81
2018-09-30T03:07:15.091Z,14.04
2018-09-30T03:08:15.119Z,13.84
2018-09-30T03:09:15.126Z,13.80
2018-09-30T03:10:15.139Z,13.80
2018-09-30T03:11:15.172Z,13.88
2018-09-30T03:12:15.188Z,14.06
2018-09-30T03:13:15.203Z,13.87
2018-09-30T03:14:15.219Z,14.02
2018-09-30T03:15:15.241Z,14.02
2018-09-30T03:16:15.269Z,14.07
2018-09-30T03:17:15.280Z,14.09
2018-09-30T03:18:15.294Z,14.07
2018-09-30T03:20:15.334Z,13.67
2018-09-30T03:21:15.361Z,13.79
2018-09-30T03:22:15.377Z,13.69
2018-09-30T03:23:15.392Z,13.79
2018-09-30T03:24:15.416Z,13.81
2018-09-30T03:26:15.458Z,13.87
2018-09-30T03:27:15.464Z,13.80
2018-09-30T03:28:15.482Z,13.58
2018-09-30T03:30:15.539Z,13.41
2018-09-30T03:31:15.529Z,13.40
2018-09-30T03:32:15.561Z,13.69
2018-09-30T03:33:15.579Z,13.54
2018-09-30T03:34:15.709Z,13.47
2018-09-30T03:35:15.613Z,13.62
2018-09-30T03:36:15.650Z,13.67
2018-09-30T03:37:15.654Z,13.69
2018-09-30T03:38:15.666Z,13.65
2018-09-30T03:39:15.688Z,13.67
2018-09-30T03:40:15.710Z,13.74
2018-09-30T03:41:15.719Z,13.47
2018-09-30T03:42:15.744Z,13.58
2018-09-30T03:43:15.763Z,13.54
2018-09-30T03:44:15.778Z,13.51
2018-09-30T03:45:15.811Z,13.51
2018-09-30T03:46:15.826Z,13.32
2018-09-30T03:47:15.965Z,13.37
2018-09-30T03:48:15.853Z,13.37
2018-09-30T03:49:15.878Z,13.40
2018-09-30T03:50:15.895Z,13.29
2018-09-30T03:51:15.913Z,13.49
2018-09-30T03:52:15.928Z,13.59
2018-09-30T03:53:15.947Z,13.38
2018-09-30T03:54:15.962Z,13.36
2018-09-30T03:55:15.983Z,13.33
2018-09-30T03:56:16.006Z,13.40
2018-09-30T03:57:16.025Z,13.49
2018-09-30T03:58:16.041Z,13.24
2018-09-30T03:59:16.067Z,13.25
2018-09-30T04:00:16.080Z,13.36
2018-09-30T04:01:16.098Z,13.32
2018-09-30T04:02:16.115Z,13.38
2018-09-30T04:03:16.128Z,13.37
2018-09-30T04:04:16.213Z,13.24
2018-09-30T04:05:16.166Z,13.03
2018-09-30T04:07:16.216Z,13.30
2018-09-30T04:08:16.233Z,13.58
2018-09-30T04:09:16.239Z,13.52
2018-09-30T04:10:16.263Z,13.55
2018-09-30T04:11:16.296Z,13.61
2018-09-30T04:12:16.300Z,13.62
2018-09-30T04:13:16.335Z,13.47
2018-09-30T04:14:16.332Z,13.56
2018-09-30T04:15:16.410Z,13.36
2018-09-30T04:16:16.365Z,13.36
2018-09-30T04:17:16.400Z,13.43
2018-09-30T04:18:16.412Z,13.32
2018-09-30T04:19:16.431Z,13.18
2018-09-30T04:21:16.471Z,13.33
2018-09-30T04:22:16.481Z,13.06
2018-09-30T04:23:16.503Z,12.74
2018-09-30T04:24:16.526Z,13.00
2018-09-30T04:25:16.539Z,12.84
2018-09-30T04:26:16.556Z,13.07
2018-09-30T04:27:16.574Z,13.30
2018-09-30T04:28:16.597Z,13.38
2018-09-30T04:29:16.616Z,13.36
2018-09-30T04:30:16.632Z,13.15
2018-09-30T04:31:16.658Z,13.07
2018-09-30T04:32:16.671Z,12.96
2018-09-30T04:33:16.713Z,13.09
2018-09-30T04:34:16.704Z,12.79
2018-09-30T04:35:16.721Z,13.04
2018-09-30T04:36:16.742Z,13.14
2018-09-30T04:37:16.758Z,12.89
2018-09-30T04:39:16.794Z,12.95
2018-09-30T04:40:16.811Z,12.89
2018-09-30T04:41:16.832Z,12.85
2018-09-30T04:42:16.847Z,12.64
2018-09-30T04:43:16.864Z,12.56
2018-09-30T04:44:16.887Z,12.62
2018-09-30T04:45:16.904Z,12.54
2018-09-30T04:46:16.933Z,12.77
2018-09-30T04:47:16.941Z,12.84
2018-09-30T04:48:16.962Z,12.84
2018-09-30T04:49:16.981Z,12.96
2018-09-30T04:50:16.991Z,12.97
2018-09-30T04:51:17.019Z,13.00
2018-09-30T04:52:17.038Z,12.60
2018-09-30T04:53:17.056Z,12.70
2018-09-30T04:54:17.061Z,12.41
2018-09-30T04:55:17.097Z,12.57
2018-09-30T04:56:17.105Z,12.71
2018-09-30T04:57:17.118Z,12.85
2018-09-30T04:58:17.140Z,13.11
2018-09-30T04:59:17.160Z,13.03
2018-09-30T05:00:17.195Z,12.93
2018-09-30T05:01:17.193Z,12.96
2018-09-30T05:02:17.211Z,12.87
2018-09-30T05:03:17.233Z,12.99
2018-09-30T05:04:17.253Z,12.99
2018-09-30T05:05:17.278Z,13.06
2018-09-30T05:06:17.291Z,13.22
2018-09-30T05:07:17.446Z,13.20
2018-09-30T05:08:17.323Z,13.21
2018-09-30T05:09:17.337Z,12.96
2018-09-30T05:10:17.360Z,12.69
2018-09-30T05:11:17.373Z,12.74
2018-09-30T05:12:17.394Z,12.60
2018-09-30T05:13:17.409Z,12.63
2018-09-30T05:14:17.431Z,12.49
2018-09-30T05:15:17.447Z,12.33
2018-09-30T05:16:17.526Z,12.39
2018-09-30T05:17:17.487Z,12.20
2018-09-30T05:18:17.503Z,12.38
2018-09-30T05:19:17.524Z,12.20
2018-09-30T05:20:17.565Z,12.44
2018-09-30T05:21:17.555Z,12.63
2018-09-30T05:22:17.596Z,12.57
2018-09-30T05:23:17.598Z,12.44
2018-09-30T05:24:17.605Z,12.42
2018-09-30T05:25:17.629Z,12.66
2018-09-30T05:26:17.649Z,12.51
2018-09-30T05:27:17.672Z,12.30
2018-09-30T05:28:17.687Z,12.24
2018-09-30T05:29:17.703Z,12.21
2018-09-30T05:30:17.721Z,12.42
2018-09-30T05:31:17.759Z,12.23
2018-09-30T05:32:17.756Z,11.96
2018-09-30T05:33:17.770Z,12.15
2018-09-30T05:35:17.821Z,11.97
2018-09-30T05:36:17.825Z,11.90
2018-09-30T05:37:18.059Z,12.01
2018-09-30T05:38:17.909Z,11.97
2018-09-30T05:39:17.887Z,11.77
2018-09-30T05:40:17.898Z,11.80
2018-09-30T05:41:17.913Z,11.80
2018-09-30T05:42:17.932Z,12.04
2018-09-30T05:43:17.956Z,12.11
2018-09-30T05:44:17.966Z,12.26
2018-09-30T05:45:17.983Z,12.42
2018-09-30T05:46:17.998Z,12.57
2018-09-30T05:47:18.031Z,12.41
2018-09-30T05:48:18.064Z,12.29
2018-09-30T05:49:18.128Z,11.94
2018-09-30T05:50:18.084Z,11.68
2018-09-30T05:51:18.103Z,11.52
2018-09-30T05:52:18.128Z,11.64
2018-09-30T05:53:18.135Z,11.85
2018-09-30T05:54:18.151Z,12.16
2018-09-30T05:55:18.177Z,12.20
2018-09-30T05:56:18.183Z,12.39
2018-09-30T05:57:18.202Z,12.33
2018-09-30T05:58:18.232Z,12.31
2018-09-30T05:59:18.237Z,12.13
2018-09-30T06:00:18.264Z,12.08
2018-09-30T06:01:18.330Z,12.29
2018-09-30T06:02:18.450Z,12.21
2018-09-30T06:03:18.313Z,12.21
2018-09-30T06:04:18.326Z,12.16
2018-09-30T06:05:18.353Z,12.15
2018-09-30T06:06:18.376Z,12.16
2018-09-30T06:07:18.381Z,12.27
2018-09-30T06:08:18.404Z,12.21
2018-09-30T06:09:18.480Z,12.23
2018-09-30T06:10:18.433Z,12.19
2018-09-30T06:11:18.456Z,12.27
2018-09-30T06:12:18.482Z,12.12
2018-09-30T06:13:18.490Z,12.12
2018-09-30T06:14:18.748Z,12.24
2018-09-30T06:15:18.525Z,12.23
2018-09-30T06:16:18.549Z,12.13
2018-09-30T06:17:18.590Z,12.44
2018-09-30T06:18:18.576Z,12.57
2018-09-30T06:19:18.597Z,12.41
2018-09-30T06:20:18.666Z,12.54
2018-09-30T06:21:18.634Z,12.41
2018-09-30T06:22:18.641Z,12.52
2018-09-30T06:23:18.671Z,12.44
2018-09-30T06:24:18.714Z,12.56
2018-09-30T06:25:18.698Z,12.66
2018-09-30T06:26:18.713Z,12.71
2018-09-30T06:27:18.741Z,12.57
2018-09-30T06:28:18.762Z,12.51
2018-09-30T06:29:18.769Z,12.39
2018-09-30T06:30:18.795Z,12.33
2018-09-30T06:31:18.935Z,12.29
2018-09-30T06:32:18.825Z,12.46
2018-09-30T06:33:18.846Z,12.46
2018-09-30T06:34:18.858Z,12.44
2018-09-30T06:35:18.875Z,12.33
2018-09-30T06:36:18.898Z,12.64
2018-09-30T06:37:18.962Z,12.60
2018-09-30T06:38:18.924Z,12.64
2018-09-30T06:39:18.943Z,12.60
2018-09-30T06:40:19.032Z,12.67
2018-09-30T06:41:18.987Z,12.78
2018-09-30T06:42:19.114Z,12.97
2018-09-30T06:43:19.105Z,12.97
2018-09-30T06:44:19.118Z,12.88
2018-09-30T06:45:19.104Z,12.87
2018-09-30T06:46:19.076Z,12.67
2018-09-30T06:47:19.087Z,12.66
2018-09-30T06:48:19.130Z,12.69
2018-09-30T06:49:19.136Z,12.78
2018-09-30T06:50:19.147Z,12.85
2018-09-30T06:51:19.157Z,12.79
2018-09-30T06:52:19.187Z,12.67
2018-09-30T06:53:19.204Z,12.62
2018-09-30T06:54:19.227Z,12.66
2018-09-30T06:55:19.228Z,12.78
2018-09-30T06:56:19.253Z,12.74
2018-09-30T06:57:19.309Z,12.64
2018-09-30T06:58:19.298Z,12.63
2018-09-30T06:59:19.313Z,12.62
2018-09-30T07:00:19.319Z,12.71
2018-09-30T07:01:19.371Z,12.82
2018-09-30T07:02:19.362Z,12.74
2018-09-30T07:03:19.378Z,12.67
2018-09-30T07:04:19.397Z,12.88
2018-09-30T07:05:19.404Z,12.96
2018-09-30T07:06:19.430Z,12.74
2018-09-30T07:07:19.439Z,12.69
2018-09-30T07:08:19.475Z,12.87
2018-09-30T07:09:19.484Z,12.75
2018-09-30T07:10:19.504Z,12.63
2018-09-30T07:11:19.536Z,12.57
2018-09-30T07:12:19.629Z,12.70
2018-09-30T07:13:19.564Z,12.62
2018-09-30T07:14:19.571Z,12.81
2018-09-30T07:15:19.591Z,12.89
2018-09-30T07:16:19.655Z,12.96
2018-09-30T07:17:19.619Z,12.88
2018-09-30T07:18:19.648Z,12.88
2018-09-30T07:19:19.661Z,12.97
2018-09-30T07:20:19.674Z,13.02
2018-09-30T07:21:19.704Z,12.88
2018-09-30T07:22:19.776Z,12.92
2018-09-30T07:23:19.848Z,12.92
2018-09-30T07:24:19.750Z,12.85
2018-09-30T07:25:19.767Z,12.81
2018-09-30T07:26:19.784Z,12.78
2018-09-30T07:27:19.816Z,12.79
2018-09-30T07:28:19.829Z,12.82
2018-09-30T07:29:19.847Z,12.85
2018-09-30T07:30:19.851Z,12.52
2018-09-30T07:31:19.881Z,12.74
2018-09-30T07:32:19.894Z,12.63
2018-09-30T07:33:19.910Z,12.54
2018-09-30T07:34:19.960Z,12.49
2018-09-30T07:35:19.945Z,12.63
2018-09-30T07:36:19.958Z,12.54
2018-09-30T07:37:19.997Z,12.44
2018-09-30T07:38:19.998Z,12.64
2018-09-30T07:39:20.070Z,12.79
2018-09-30T07:40:20.042Z,12.71
2018-09-30T07:41:20.053Z,12.71
2018-09-30T07:42:20.086Z,12.60
2018-09-30T07:43:20.091Z,12.62
2018-09-30T07:44:20.101Z,12.70
2018-09-30T07:45:20.146Z,12.75
2018-09-30T07:46:20.147Z,12.81
2018-09-30T07:47:20.165Z,13.03
2018-09-30T07:48:20.181Z,12.85
2018-09-30T07:49:20.215Z,13.02
2018-09-30T07:50:20.239Z,13.14
2018-09-30T07:51:20.297Z,13.21
2018-09-30T07:52:20.305Z,12.99
2018-09-30T07:53:20.298Z,12.70
2018-09-30T07:54:20.282Z,12.74
2018-09-30T07:55:20.313Z,12.81
2018-09-30T07:56:20.330Z,12.97
2018-09-30T07:57:20.339Z,13.11
2018-09-30T07:58:20.372Z,13.27
2018-09-30T07:59:20.409Z,13.40
2018-09-30T08:00:20.400Z,13.22
2018-09-30T08:01:20.409Z,13.04
2018-09-30T08:02:20.431Z,12.99
2018-09-30T08:03:20.454Z,13.03
2018-09-30T08:05:20.495Z,13.09
2018-09-30T08:06:20.589Z,13.25
2018-09-30T08:07:20.544Z,13.40
2018-09-30T08:08:20.568Z,13.47
2018-09-30T08:09:20.561Z,13.49
2018-09-30T08:10:20.600Z,13.51
2018-09-30T08:11:20.603Z,13.56
2018-09-30T08:12:20.620Z,13.49
2018-09-30T08:13:20.638Z,13.65
2018-09-30T08:14:20.650Z,13.71
2018-09-30T08:15:20.666Z,13.62
2018-09-30T08:16:20.692Z,13.69
2018-09-30T08:17:20.713Z,13.76
2018-09-30T08:18:20.763Z,13.81
2018-09-30T08:19:20.788Z,13.84
2018-09-30T08:20:21.158Z,13.81
2018-09-30T08:21:20.848Z,13.81
2018-09-30T08:22:20.927Z,13.83
2018-09-30T08:23:20.811Z,13.58
2018-09-30T08:24:20.931Z,13.67
2018-09-30T08:25:20.867Z,13.89
2018-09-30T08:26:20.922Z,13.83
2018-09-30T08:27:20.887Z,13.84
2018-09-30T08:28:20.909Z,13.83
2018-09-30T08:29:20.943Z,13.70
2018-09-30T08:30:20.948Z,13.70
2018-09-30T08:31:20.961Z,13.70
2018-09-30T08:32:20.996Z,13.76
2018-09-30T08:33:21.004Z,13.87
2018-09-30T08:34:21.009Z,13.99
2018-09-30T08:35:21.035Z,14.01
2018-09-30T08:36:21.066Z,14.09
2018-09-30T08:37:21.065Z,14.04
2018-09-30T08:38:21.089Z,14.19
2018-09-30T08:39:21.109Z,14.34
2018-09-30T08:40:21.126Z,14.24
2018-09-30T08:41:21.148Z,14.13
2018-09-30T08:42:21.159Z,14.17
2018-09-30T08:43:21.177Z,14.13
2018-09-30T08:44:21.202Z,14.21
2018-09-30T08:45:21.235Z,14.21
2018-09-30T08:46:21.230Z,14.14
2018-09-30T08:47:21.267Z,14.13
2018-09-30T08:48:21.299Z,13.95
2018-09-30T08:49:21.377Z,14.01
2018-09-30T08:50:21.299Z,14.07
2018-09-30T08:51:21.330Z,14.07
2018-09-30T08:52:21.352Z,14.12
2018-09-30T08:53:21.369Z,14.24
2018-09-30T08:54:21.379Z,14.21
2018-09-30T08:55:21.395Z,14.25
2018-09-30T08:56:21.427Z,14.29
2018-09-30T08:57:21.427Z,14.21
2018-09-30T08:58:21.458Z,14.20
2018-09-30T08:59:21.475Z,14.21
2018-09-30T09:00:21.520Z,14.13
2018-09-30T09:01:21.517Z,14.19
2018-09-30T09:02:21.536Z,14.28
2018-09-30T09:03:21.542Z,14.24
2018-09-30T09:04:21.570Z,14.38
2018-09-30T09:05:21.580Z,14.49
2018-09-30T09:06:21.640Z,14.44
2018-09-30T09:07:21.623Z,14.44
2018-09-30T09:08:21.638Z,14.52
2018-09-30T09:09:21.661Z,14.60
2018-09-30T09:10:21.675Z,14.67
2018-09-30T09:11:21.748Z,14.60
2018-09-30T09:12:21.717Z,14.52
2018-09-30T09:13:21.825Z,14.53
2018-09-30T09:14:21.746Z,14.71
2018-09-30T09:15:21.787Z,14.80
2018-09-30T09:17:21.851Z,14.80
2018-09-30T09:18:21.886Z,14.74
2018-09-30T09:19:21.840Z,14.87
2018-09-30T09:20:21.868Z,14.93
2018-09-30T09:21:22.905Z,14.93
2018-09-30T09:22:21.962Z,14.87
2018-09-30T09:23:21.940Z,14.74
2018-09-30T09:24:21.977Z,14.84
2018-09-30T09:25:21.963Z,14.87
2018-09-30T09:26:21.974Z,14.87
2018-09-30T09:27:21.995Z,14.93
2018-09-30T09:28:22.013Z,14.83
2018-09-30T09:29:22.039Z,14.91
2018-09-30T09:30:22.050Z,15.03
2018-09-30T09:31:22.076Z,14.88
2018-09-30T09:32:22.113Z,14.94
2018-09-30T09:33:22.113Z,14.86
2018-09-30T09:34:22.128Z,14.87
2018-09-30T09:35:22.142Z,14.86
2018-09-30T09:36:22.171Z,15.02
2018-09-30T09:37:22.201Z,15.13
2018-09-30T09:38:22.265Z,15.05
2018-09-30T09:39:22.221Z,15.02
2018-09-30T09:40:22.239Z,15.08
2018-09-30T09:41:22.304Z,15.06
2018-09-30T09:42:22.282Z,15.06
2018-09-30T09:43:22.305Z,15.06
2018-09-30T09:44:22.319Z,15.06
2018-09-30T09:45:22.340Z,15.09
2018-09-30T09:46:22.357Z,15.19
2018-09-30T09:47:22.386Z,15.13
2018-09-30T09:48:22.420Z,15.08
2018-09-30T09:49:22.411Z,15.05
2018-09-30T09:50:22.429Z,15.20
2018-09-30T09:51:22.463Z,15.13
2018-09-30T09:52:22.555Z,15.20
2018-09-30T09:53:22.481Z,15.23
2018-09-30T09:54:22.512Z,15.36
2018-09-30T09:55:22.531Z,15.39
2018-09-30T09:56:22.545Z,15.35
2018-09-30T09:57:22.563Z,15.38
2018-09-30T09:58:22.590Z,15.38
2018-09-30T09:59:22.696Z,15.48
2018-09-30T10:00:22.623Z,15.38
2018-09-30T10:01:22.641Z,15.41
2018-09-30T10:02:22.669Z,15.35
2018-09-30T10:03:22.702Z,15.48
2018-09-30T10:04:22.705Z,15.43
2018-09-30T10:05:22.712Z,15.36
2018-09-30T10:06:22.735Z,15.48
2018-09-30T10:07:22.755Z,15.51
2018-09-30T10:08:22.779Z,15.49
2018-09-30T10:09:22.805Z,15.56
2018-09-30T10:10:22.811Z,15.43
2018-09-30T10:11:22.835Z,15.60
2018-09-30T10:12:22.855Z,15.61
2018-09-30T10:13:22.975Z,15.59
2018-09-30T10:14:22.887Z,15.61
2018-09-30T10:15:22.910Z,15.60
2018-09-30T10:16:22.980Z,15.52
2018-09-30T10:17:22.948Z,15.70
2018-09-30T10:18:22.963Z,15.66
2018-09-30T10:19:23.012Z,15.64
2018-09-30T10:20:23.018Z,15.66
2018-09-30T10:21:23.032Z,15.67
2018-09-30T10:22:23.058Z,15.74
2018-09-30T10:23:23.056Z,15.81
2018-09-30T10:24:23.084Z,15.84
2018-09-30T10:25:23.108Z,15.75
2018-09-30T10:26:23.124Z,15.67
2018-09-30T10:27:23.170Z,15.74
2018-09-30T10:28:23.168Z,15.70
2018-09-30T10:29:23.185Z,15.82
2018-09-30T10:30:23.211Z,15.84
2018-09-30T10:31:23.286Z,15.85
2018-09-30T10:32:23.244Z,15.82
2018-09-30T10:33:23.304Z,15.81
2018-09-30T10:34:23.284Z,15.88
2018-09-30T10:35:23.292Z,15.89
2018-09-30T10:36:23.314Z,15.93
2018-09-30T10:37:23.355Z,15.94
2018-09-30T10:38:23.423Z,15.99
2018-09-30T10:39:23.564Z,15.92
2018-09-30T10:41:23.412Z,16.01
2018-09-30T10:42:23.443Z,16.11
2018-09-30T10:43:23.453Z,16.11
2018-09-30T10:44:23.483Z,16.09
2018-09-30T10:45:23.518Z,16.04
2018-09-30T10:46:23.547Z,16.14
2018-09-30T10:47:23.540Z,16.16
2018-09-30T10:48:23.597Z,16.12
2018-09-30T10:49:23.587Z,16.20
2018-09-30T10:50:23.613Z,16.30
2018-09-30T10:51:23.617Z,16.14
2018-09-30T10:52:23.640Z,16.20
2018-09-30T10:53:23.657Z,16.20
2018-09-30T10:54:23.674Z,16.14
2018-09-30T10:55:23.771Z,16.23
2018-09-30T10:56:23.719Z,16.25
2018-09-30T10:57:23.741Z,16.38
2018-09-30T10:58:23.750Z,16.49
2018-09-30T10:59:23.774Z,16.59
2018-09-30T11:00:23.806Z,16.59
2018-09-30T11:01:23.814Z,16.65
2018-09-30T11:02:23.838Z,16.74
2018-09-30T11:03:23.888Z,16.77
2018-09-30T11:04:23.878Z,16.86
2018-09-30T11:05:23.888Z,16.89
2018-09-30T11:06:23.916Z,16.89
2018-09-30T11:07:23.945Z,16.90
2018-09-30T11:08:24.105Z,16.99
2018-09-30T11:09:23.998Z,17.06
2018-09-30T11:10:23.996Z,17.10
2018-09-30T11:11:24.030Z,17.17
2018-09-30T11:12:24.075Z,17.18
2018-09-30T11:13:24.066Z,17.26
2018-09-30T11:14:24.098Z,17.32
2018-09-30T11:15:24.127Z,17.38
2018-09-30T11:16:24.139Z,17.50
2018-09-30T11:17:24.159Z,17.54
2018-09-30T11:18:24.192Z,17.59
2018-09-30T11:19:24.208Z,17.70
2018-09-30T11:20:24.238Z,17.81
2018-09-30T11:21:24.343Z,17.99
2018-09-30T11:22:24.347Z,18.22
2018-09-30T11:23:24.299Z,18.37
2018-09-30T11:24:24.336Z,18.62
2018-09-30T11:25:24.369Z,18.67
2018-09-30T11:26:24.379Z,19.28
2018-09-30T11:27:24.404Z,20.86
2018-09-30T11:28:24.421Z,22.39
2018-09-30T11:29:24.473Z,22.97
2018-09-30T11:30:24.476Z,23.46
2018-09-30T11:31:24.509Z,23.04
2018-09-30T11:32:24.589Z,21.82
2018-09-30T11:33:24.554Z,21.98
2018-09-30T11:34:24.590Z,23.01
2018-09-30T11:35:24.599Z,23.76
2018-09-30T11:36:24.640Z,24.31
2018-09-30T11:37:24.648Z,24.76
2018-09-30T11:38:24.677Z,24.94
2018-09-30T11:39:24.702Z,23.65
2018-09-30T11:40:24.729Z,21.76
2018-09-30T11:41:24.759Z,20.61
2018-09-30T11:42:24.775Z,20.02
2018-09-30T11:43:24.880Z,19.68
2018-09-30T11:44:24.823Z,19.46
2018-09-30T11:45:24.856Z,19.38
2018-09-30T11:46:24.885Z,19.21
2018-09-30T11:47:24.920Z,19.23
2018-09-30T11:48:24.931Z,19.15
2018-09-30T11:49:24.952Z,19.10
2018-09-30T11:50:24.964Z,19.01
2018-09-30T11:51:25.027Z,19.10
2018-09-30T11:52:25.031Z,19.06
2018-09-30T11:53:25.039Z,19.11
2018-09-30T11:54:25.080Z,18.92
2018-09-30T11:55:25.092Z,18.73
2018-09-30T11:56:25.114Z,18.76
2018-09-30T11:57:25.134Z,18.74
2018-09-30T11:59:25.181Z,18.80
2018-09-30T12:00:25.200Z,18.82
2018-09-30T12:01:25.362Z,18.74
2018-09-30T12:02:25.273Z,18.83
2018-09-30T12:03:25.278Z,18.86
2018-09-30T12:04:25.299Z,18.79
2018-09-30T12:05:25.316Z,18.82
2018-09-30T12:06:25.347Z,18.86
2018-09-30T12:07:25.369Z,18.84
2018-09-30T12:08:25.389Z,18.74
2018-09-30T12:09:25.409Z,18.76
2018-09-30T12:10:25.433Z,18.79
2018-09-30T12:11:25.483Z,18.82
2018-09-30T12:13:25.506Z,18.74
2018-09-30T12:14:25.525Z,18.65
2018-09-30T12:15:25.559Z,18.82
2018-09-30T12:16:25.567Z,18.68
2018-09-30T12:17:25.585Z,18.77
2018-09-30T12:18:25.769Z,18.72
2018-09-30T12:19:25.629Z,18.65
2018-09-30T12:20:25.665Z,18.76
2018-09-30T12:21:25.679Z,18.72
2018-09-30T12:22:25.710Z,18.82
2018-09-30T12:23:25.731Z,18.82
2018-09-30T12:24:25.738Z,18.80
2018-09-30T12:25:25.783Z,18.83
2018-09-30T12:26:25.795Z,18.84
2018-09-30T12:27:25.817Z,18.73
2018-09-30T12:28:25.830Z,18.65
2018-09-30T12:29:25.850Z,18.68
2018-09-30T12:31:25.905Z,18.79
2018-09-30T12:32:25.958Z,18.65
2018-09-30T12:33:25.958Z,18.68
2018-09-30T12:34:25.971Z,18.65
2018-09-30T12:35:26.007Z,18.72
2018-09-30T12:36:26.012Z,18.79
2018-09-30T12:37:26.042Z,18.91
2018-09-30T12:38:26.057Z,18.87
2018-09-30T12:39:26.162Z,18.82
2018-09-30T12:40:26.110Z,18.90
2018-09-30T12:41:26.444Z,18.97
2018-09-30T12:42:26.564Z,18.95
2018-09-30T12:43:26.527Z,18.90
2018-09-30T12:44:26.593Z,19.01
2018-09-30T12:45:26.212Z,18.95
2018-09-30T12:46:26.255Z,18.83
2018-09-30T12:47:26.266Z,18.83
2018-09-30T12:48:26.276Z,18.82
2018-09-30T12:49:26.302Z,18.87
2018-09-30T12:50:26.321Z,18.84
2018-09-30T12:51:26.345Z,18.87
2018-09-30T12:52:26.373Z,18.87
2018-09-30T12:53:26.399Z,18.72
2018-09-30T12:54:26.425Z,18.79
2018-09-30T12:55:26.445Z,18.70
2018-09-30T12:56:26.455Z,18.80
2018-09-30T12:57:26.487Z,18.74
2018-09-30T12:58:26.504Z,18.74
2018-09-30T12:59:26.651Z,18.99
2018-09-30T13:00:26.644Z,18.95
2018-09-30T13:01:26.672Z,18.92
2018-09-30T13:02:26.663Z,18.97
2018-09-30T13:03:26.763Z,18.94
2018-09-30T13:04:26.744Z,18.97
2018-09-30T13:05:26.786Z,19.06
2018-09-30T13:06:26.713Z,19.01
2018-09-30T13:07:26.771Z,19.11
2018-09-30T13:08:26.842Z,19.18
2018-09-30T13:09:26.885Z,19.05
2018-09-30T13:10:26.873Z,18.99
2018-09-30T13:11:26.885Z,19.08
2018-09-30T13:12:26.960Z,18.99
2018-09-30T13:13:26.871Z,19.01
2018-09-30T13:14:26.855Z,19.11